createdAt,value
2019-02-23T00:01:51.372Z,99.90
2019-02-23T00:04:19.785Z,99.90
2019-02-23T00:06:48.175Z,99.90
2019-02-23T00:09:16.880Z,99.90
2019-02-23T00:11:45.286Z,99.90
2019-02-23T00:14:13.689Z,99.90
2019-02-23T00:16:42.090Z,99.90
2019-02-23T00:19:10.736Z,99.90
2019-02-23T00:21:39.226Z,99.90
2019-02-23T00:24:07.635Z,99.90
2019-02-23T00:26:36.072Z,99.90
2019-02-23T00:29:04.473Z,99.90
2019-02-23T00:31:32.937Z,99.90
2019-02-23T00:36:49.006Z,99.90
2019-02-23T00:39:17.406Z,99.90
2019-02-23T00:41:45.852Z,99.90
2019-02-23T00:44:14.261Z,99.90
2019-02-23T00:46:42.670Z,99.90
2019-02-23T00:49:11.070Z,99.90
2019-02-23T00:51:39.540Z,99.90
2019-02-23T00:54:07.938Z,99.90
2019-02-23T00:56:36.354Z,99.90
2019-02-23T00:59:04.758Z,99.90
2019-02-23T01:01:33.167Z,99.90
2019-02-23T01:04:01.622Z,99.90
2019-02-23T01:06:30.087Z,99.90
2019-02-23T01:08:58.493Z,99.90
2019-02-23T01:11:26.894Z,99.90
2019-02-23T01:13:55.386Z,99.90
2019-02-23T01:16:23.841Z,99.90
2019-02-23T01:18:52.236Z,99.90
2019-02-23T01:21:20.650Z,99.90
2019-02-23T01:23:49.064Z,99.90
2019-02-23T01:26:17.487Z,99.90
2019-02-23T01:28:45.865Z,99.90
2019-02-23T01:31:14.350Z,99.90
2019-02-23T01:33:42.746Z,99.90
2019-02-23T01:36:11.222Z,99.90
2019-02-23T01:38:39.810Z,99.90
2019-02-23T01:41:08.534Z,99.90
2019-02-23T01:43:36.916Z,99.90
2019-02-23T01:46:05.319Z,99.90
2019-02-23T01:48:34.036Z,99.90
2019-02-23T01:51:02.506Z,99.90
2019-02-23T01:53:30.995Z,99.90
2019-02-23T01:55:59.476Z,99.90
2019-02-23T01:58:27.870Z,99.90
2019-02-23T02:00:56.270Z,99.90
2019-02-23T02:03:24.859Z,99.90
2019-02-23T02:05:53.523Z,99.90
2019-02-23T02:08:21.899Z,99.90
2019-02-23T02:10:50.364Z,99.90
2019-02-23T02:13:18.993Z,99.90
2019-02-23T02:15:47.625Z,99.90
2019-02-23T02:18:16.289Z,99.90
2019-02-23T02:20:44.723Z,99.90
2019-02-23T02:23:13.206Z,99.90
2019-02-23T02:25:41.618Z,99.90
2019-02-23T02:28:10.001Z,99.90
2019-02-23T02:30:38.675Z,99.90
2019-02-23T02:33:07.378Z,99.90
2019-02-23T02:35:35.861Z,99.90
2019-02-23T02:38:04.499Z,99.90
2019-02-23T02:40:34.433Z,99.90
2019-02-23T02:43:02.854Z,99.90
2019-02-23T02:45:31.260Z,99.90
2019-02-23T02:47:59.641Z,99.90
2019-02-23T02:50:28.034Z,99.90
2019-02-23T02:52:56.443Z,99.90
2019-02-23T02:55:24.844Z,99.90
2019-02-23T02:57:53.351Z,99.90
2019-02-23T03:00:21.876Z,99.90
2019-02-23T03:02:50.305Z,99.90
2019-02-23T03:05:19.003Z,99.90
2019-02-23T03:07:47.375Z,99.90
2019-02-23T03:10:15.784Z,99.90
2019-02-23T03:12:44.239Z,99.90
2019-02-23T03:15:12.705Z,99.90
2019-02-23T03:17:41.363Z,99.90
2019-02-23T03:20:09.756Z,99.90
2019-02-23T03:22:38.176Z,99.90
2019-02-23T03:25:07.410Z,99.90
2019-02-23T03:27:35.867Z,99.90
2019-02-23T03:30:06.140Z,99.90
2019-02-23T03:32:34.811Z,99.90
2019-02-23T03:35:03.256Z,99.90
2019-02-23T03:37:33.364Z,99.90
2019-02-23T03:40:01.821Z,99.90
2019-02-23T03:42:30.218Z,99.90
2019-02-23T03:44:58.866Z,99.90
2019-02-23T03:47:27.271Z,99.90
2019-02-23T03:49:55.699Z,99.90
2019-02-23T03:52:24.119Z,99.90
2019-02-23T03:54:52.513Z,99.90
2019-02-23T03:57:20.936Z,99.90
2019-02-23T03:59:49.337Z,99.90
2019-02-23T04:02:17.738Z,99.90
2019-02-23T04:04:46.137Z,99.90
2019-02-23T04:07:14.548Z,99.90
2019-02-23T04:09:43.044Z,99.90
2019-02-23T04:12:11.446Z,99.90
2019-02-23T04:14:39.923Z,99.90
2019-02-23T04:17:08.315Z,99.90
2019-02-23T04:19:36.710Z,99.90
2019-02-23T04:22:05.137Z,99.90
2019-02-23T04:24:33.775Z,99.90
2019-02-23T04:27:02.182Z,99.90
2019-02-23T04:29:30.574Z,99.90
2019-02-23T04:31:58.982Z,99.90
2019-02-23T04:34:27.379Z,99.90
2019-02-23T04:36:55.775Z,99.90
2019-02-23T04:39:24.332Z,99.90
2019-02-23T04:41:52.731Z,99.90
2019-02-23T04:44:21.143Z,99.90
2019-02-23T04:46:49.543Z,99.90
2019-02-23T04:49:17.943Z,99.90
2019-02-23T04:51:46.349Z,99.90
2019-02-23T04:54:14.753Z,99.90
2019-02-23T04:56:43.218Z,99.90
2019-02-23T04:59:11.672Z,99.90
2019-02-23T05:01:40.161Z,99.90
2019-02-23T05:04:08.587Z,99.90
2019-02-23T05:06:37.044Z,99.90
2019-02-23T05:09:05.989Z,99.90
2019-02-23T05:11:34.385Z,99.90
2019-02-23T05:14:02.790Z,99.90
2019-02-23T05:16:31.181Z,99.90
2019-02-23T05:18:59.819Z,99.90
2019-02-23T05:21:28.231Z,99.90
2019-02-23T05:23:56.870Z,99.90
2019-02-23T05:26:25.282Z,99.90
2019-02-23T05:28:53.731Z,99.90
2019-02-23T05:31:22.364Z,99.90
2019-02-23T05:33:50.898Z,99.90
2019-02-23T05:36:19.294Z,99.90
2019-02-23T05:38:48.260Z,99.90
2019-02-23T05:41:16.658Z,99.90
2019-02-23T05:43:45.290Z,99.90
2019-02-23T05:46:13.697Z,99.90
2019-02-23T05:48:42.103Z,99.90
2019-02-23T05:51:10.734Z,99.90
2019-02-23T05:53:39.171Z,99.90
2019-02-23T05:56:07.561Z,99.90
2019-02-23T05:58:36.103Z,99.90
2019-02-23T06:01:04.505Z,99.90
2019-02-23T06:03:32.930Z,99.90
2019-02-23T06:06:01.435Z,99.90
2019-02-23T06:08:30.064Z,99.90
2019-02-23T06:10:58.735Z,99.90
2019-02-23T06:13:27.138Z,99.90
2019-02-23T06:15:55.783Z,99.90
2019-02-23T06:18:24.195Z,99.90
2019-02-23T06:20:52.598Z,99.90
2019-02-23T06:23:21.247Z,99.90
2019-02-23T06:25:49.672Z,99.90
2019-02-23T06:28:18.077Z,99.90
2019-02-23T06:30:46.468Z,99.90
2019-02-23T06:33:15.026Z,99.90
2019-02-23T06:35:43.425Z,99.90
2019-02-23T06:38:11.811Z,99.90
2019-02-23T06:40:40.458Z,99.90
2019-02-23T06:43:08.880Z,99.90
2019-02-23T06:45:37.530Z,99.90
2019-02-23T06:48:05.920Z,99.90
2019-02-23T06:50:37.316Z,99.90
2019-02-23T06:53:05.792Z,99.90
2019-02-23T06:55:34.422Z,99.90
2019-02-23T06:58:03.062Z,99.90
2019-02-23T07:00:31.617Z,99.90
2019-02-23T07:03:00.010Z,99.90
2019-02-23T07:05:28.412Z,99.90
2019-02-23T07:07:56.810Z,99.90
2019-02-23T07:10:25.447Z,99.90
2019-02-23T07:12:54.221Z,99.90
2019-02-23T07:15:22.945Z,99.90
2019-02-23T07:17:51.587Z,99.90
2019-02-23T07:20:19.986Z,99.90
2019-02-23T07:22:48.725Z,99.90
2019-02-23T07:25:17.296Z,99.90
2019-02-23T07:27:45.689Z,99.90
2019-02-23T07:30:14.663Z,99.90
2019-02-23T07:32:43.161Z,99.90
2019-02-23T07:35:11.550Z,99.90
2019-02-23T07:37:41.901Z,99.90
2019-02-23T07:40:12.345Z,99.90
2019-02-23T07:42:40.749Z,99.90
2019-02-23T07:45:10.188Z,99.90
2019-02-23T07:47:38.821Z,99.90
2019-02-23T07:50:12.584Z,99.90
2019-02-23T07:52:40.982Z,99.90
2019-02-23T07:55:09.585Z,99.90
2019-02-23T07:57:37.988Z,99.90
2019-02-23T08:00:15.245Z,99.90
2019-02-23T08:02:43.975Z,99.90
2019-02-23T08:05:12.449Z,99.90
2019-02-23T08:07:41.116Z,99.90
2019-02-23T08:10:11.162Z,99.90
2019-02-23T08:12:39.894Z,99.90
2019-02-23T08:15:12.352Z,99.90
2019-02-23T08:17:40.746Z,99.90
2019-02-23T08:20:10.902Z,99.90
2019-02-23T08:22:39.392Z,99.90
2019-02-23T08:25:10.024Z,99.90
2019-02-23T08:27:38.436Z,99.90
2019-02-23T08:30:12.727Z,99.90
2019-02-23T08:32:41.180Z,99.90
2019-02-23T08:35:09.646Z,99.90
2019-02-23T08:37:38.051Z,99.90
2019-02-23T08:40:12.277Z,99.90
2019-02-23T08:42:40.765Z,99.90
2019-02-23T08:45:10.014Z,99.90
2019-02-23T08:47:38.703Z,99.90
2019-02-23T08:50:12.973Z,99.90
2019-02-23T08:52:48.546Z,99.90
2019-02-23T08:55:11.808Z,99.90
2019-02-23T08:57:40.304Z,99.90
2019-02-23T09:00:18.706Z,99.80
2019-02-23T09:02:47.263Z,96.70
2019-02-23T09:05:15.709Z,99.20
2019-02-23T09:07:44.112Z,97.30
2019-02-23T09:10:15.276Z,94.60
2019-02-23T09:12:43.760Z,99.20
2019-02-23T09:15:12.584Z,99.90
2019-02-23T09:17:41.223Z,99.90
2019-02-23T09:20:11.750Z,99.90
2019-02-23T09:22:40.417Z,99.90
2019-02-23T09:25:11.809Z,99.90
2019-02-23T09:27:40.285Z,99.90
2019-02-23T09:30:14.340Z,99.90
2019-02-23T09:32:42.782Z,99.90
2019-02-23T09:35:11.365Z,94.00
2019-02-23T09:37:39.828Z,97.80
2019-02-23T09:40:11.810Z,99.90
2019-02-23T09:42:40.445Z,99.90
2019-02-23T09:45:11.508Z,97.10
2019-02-23T09:47:40.353Z,94.60
2019-02-23T09:50:09.074Z,82.60
2019-02-23T09:52:37.511Z,82.90
2019-02-23T09:55:06.902Z,81.90
2019-02-23T09:57:35.538Z,70.90
2019-02-23T10:00:06.203Z,70.20
2019-02-23T10:02:34.683Z,75.20
2019-02-23T10:05:03.190Z,79.10
2019-02-23T10:07:32.814Z,77.10
2019-02-23T10:10:01.455Z,75.10
2019-02-23T10:12:29.903Z,71.00
2019-02-23T10:14:58.314Z,82.70
2019-02-23T10:17:28.506Z,73.10
2019-02-23T10:19:56.926Z,67.50
2019-02-23T10:22:25.508Z,67.20
2019-02-23T10:24:53.941Z,62.00
2019-02-23T10:27:22.398Z,58.10
2019-02-23T10:29:50.934Z,56.60
2019-02-23T10:32:19.479Z,54.30
2019-02-23T10:34:47.955Z,59.10
2019-02-23T10:37:16.382Z,57.80
2019-02-23T10:39:44.869Z,57.10
2019-02-23T10:42:13.373Z,56.40
2019-02-23T10:44:43.590Z,52.90
2019-02-23T10:47:12.049Z,53.80
2019-02-23T10:49:40.550Z,52.80
2019-02-23T10:52:11.986Z,52.30
2019-02-23T10:54:40.446Z,54.10
2019-02-23T10:57:09.162Z,50.40
2019-02-23T10:59:37.910Z,50.80
2019-02-23T11:02:06.661Z,52.70
2019-02-23T11:04:37.375Z,50.60
2019-02-23T11:07:12.569Z,48.90
2019-02-23T11:09:41.038Z,48.60
2019-02-23T11:12:09.507Z,48.70
2019-02-23T11:14:37.962Z,49.10
2019-02-23T11:17:06.603Z,49.10
2019-02-23T11:19:34.997Z,47.00
2019-02-23T11:22:03.564Z,49.10
2019-02-23T11:24:32.346Z,48.60
2019-02-23T11:27:01.002Z,50.40
2019-02-23T11:29:30.331Z,47.00
2019-02-23T11:31:59.083Z,48.00
2019-02-23T11:34:27.924Z,50.00
2019-02-23T11:36:56.684Z,49.90
2019-02-23T11:39:25.585Z,48.80
2019-02-23T11:41:57.105Z,48.10
2019-02-23T11:44:25.962Z,45.70
2019-02-23T11:47:00.650Z,45.30
2019-02-23T11:49:27.794Z,45.00
2019-02-23T11:51:56.198Z,45.80
2019-02-23T11:54:27.078Z,46.80
2019-02-23T11:56:55.509Z,45.10
2019-02-23T11:59:25.222Z,45.00
2019-02-23T12:01:53.682Z,46.50
2019-02-23T12:04:22.077Z,46.10
2019-02-23T12:06:50.502Z,45.70
2019-02-23T12:09:18.929Z,46.30
2019-02-23T12:11:49.155Z,45.60
2019-02-23T12:14:17.653Z,45.90
2019-02-23T12:16:46.315Z,45.70
2019-02-23T12:19:14.804Z,45.60
2019-02-23T12:21:43.233Z,46.00
2019-02-23T12:24:11.862Z,45.10
2019-02-23T12:26:40.333Z,46.10
2019-02-23T12:29:08.798Z,45.90
2019-02-23T12:31:37.298Z,46.00
2019-02-23T12:34:05.892Z,46.80
2019-02-23T12:36:34.401Z,46.20
2019-02-23T12:39:03.046Z,44.80
2019-02-23T12:41:31.501Z,46.50
2019-02-23T12:44:00.114Z,46.70
2019-02-23T12:46:28.608Z,46.60
2019-02-23T12:48:57.294Z,48.10
2019-02-23T12:51:25.698Z,46.60
2019-02-23T12:53:54.197Z,46.10
2019-02-23T12:56:22.672Z,45.40
2019-02-23T12:58:51.185Z,45.50
2019-02-23T13:01:19.682Z,46.40
2019-02-23T13:03:48.203Z,48.00
2019-02-23T13:06:16.752Z,47.80
2019-02-23T13:09:10.688Z,48.20
2019-02-23T13:11:39.100Z,47.80
2019-02-23T13:14:34.929Z,48.00
2019-02-23T13:17:09.092Z,46.80
2019-02-23T13:20:00.694Z,47.30
2019-02-23T13:22:35.150Z,47.40
2019-02-23T13:25:21.954Z,48.50
2019-02-23T13:27:56.146Z,47.40
2019-02-23T13:30:30.334Z,47.20
2019-02-23T13:33:11.172Z,46.90
2019-02-23T13:35:52.029Z,48.70
2019-02-23T13:38:43.090Z,48.60
2019-02-23T13:41:14.578Z,51.00
2019-02-23T13:44:03.754Z,50.40
2019-02-23T13:46:38.110Z,50.40
2019-02-23T13:49:28.992Z,50.00
2019-02-23T13:52:20.320Z,49.60
2019-02-23T13:55:25.006Z,51.50
2019-02-23T13:58:05.241Z,51.90
2019-02-23T14:00:48.722Z,54.10
2019-02-23T14:03:41.007Z,52.00
2019-02-23T14:06:24.795Z,53.70
2019-02-23T14:09:28.001Z,54.20
2019-02-23T14:12:16.009Z,52.80
2019-02-23T14:14:52.644Z,55.20
2019-02-23T14:17:42.102Z,56.70
2019-02-23T14:20:13.625Z,54.60
2019-02-23T14:22:45.123Z,54.90
2019-02-23T14:25:31.692Z,53.90
2019-02-23T14:28:27.303Z,53.10
2019-02-23T14:31:07.466Z,53.10
2019-02-23T14:34:00.349Z,52.60
2019-02-23T14:36:37.378Z,54.20
2019-02-23T14:39:13.086Z,55.50
2019-02-23T14:42:18.120Z,57.10
2019-02-23T14:45:10.856Z,58.40
2019-02-23T14:47:57.402Z,59.40
2019-02-23T14:50:31.763Z,62.50
2019-02-23T14:53:24.475Z,59.50
2019-02-23T14:55:56.040Z,63.50
2019-02-23T14:58:30.345Z,61.50
2019-02-23T15:01:17.298Z,62.40
2019-02-23T15:04:09.342Z,58.90
2019-02-23T15:07:14.239Z,59.50
2019-02-23T15:10:17.886Z,62.60
2019-02-23T15:13:10.334Z,61.20
2019-02-23T15:15:54.190Z,62.50
2019-02-23T15:18:37.406Z,62.90
2019-02-23T15:21:14.743Z,62.20
2019-02-23T15:24:07.180Z,60.70
2019-02-23T15:26:53.818Z,64.10
2019-02-23T15:29:43.389Z,66.00
2019-02-23T15:32:24.140Z,66.60
2019-02-23T15:35:14.246Z,66.40
2019-02-23T15:38:05.169Z,65.30
2019-02-23T15:41:08.175Z,64.20
2019-02-23T15:43:48.285Z,68.70
2019-02-23T15:46:46.274Z,72.90
2019-02-23T15:49:28.988Z,69.70
2019-02-23T15:51:57.886Z,78.70
2019-02-23T15:54:29.127Z,77.30
2019-02-23T15:56:56.804Z,82.30
2019-02-23T15:59:25.218Z,80.40
2019-02-23T16:01:54.179Z,83.90
2019-02-23T16:04:22.689Z,85.70
2019-02-23T16:06:51.169Z,85.80
2019-02-23T16:09:22.557Z,83.10
2019-02-23T16:11:51.123Z,87.90
2019-02-23T16:14:21.174Z,83.00
2019-02-23T16:16:49.744Z,84.10
2019-02-23T16:19:18.170Z,83.80
2019-02-23T16:21:46.734Z,86.00
2019-02-23T16:24:15.381Z,86.30
2019-02-23T16:26:43.976Z,88.50
2019-02-23T16:29:12.934Z,91.00
2019-02-23T16:31:41.600Z,92.30
2019-02-23T16:34:10.376Z,93.60
2019-02-23T16:36:38.919Z,99.90
2019-02-23T16:39:10.398Z,99.90
2019-02-23T16:41:44.349Z,99.90
2019-02-23T16:44:12.885Z,99.90
2019-02-23T16:46:41.325Z,99.90
2019-02-23T16:49:10.419Z,99.90
2019-02-23T16:51:39.204Z,99.90
2019-02-23T16:54:07.887Z,99.90
2019-02-23T16:56:36.462Z,99.90
2019-02-23T16:59:05.163Z,99.90
2019-02-23T17:01:33.605Z,99.90
2019-02-23T17:04:02.417Z,99.90
2019-02-23T17:06:32.854Z,99.90
2019-02-23T17:09:01.602Z,99.90
2019-02-23T17:11:30.006Z,99.90
2019-02-23T17:13:58.797Z,99.90
2019-02-23T17:16:27.736Z,99.90
2019-02-23T17:18:56.328Z,99.90
2019-02-23T17:21:25.127Z,99.90
2019-02-23T17:23:54.265Z,99.90
2019-02-23T17:26:22.910Z,99.90
2019-02-23T17:28:51.574Z,99.90
2019-02-23T17:31:20.339Z,99.90
2019-02-23T17:33:48.987Z,99.90
2019-02-23T17:36:17.629Z,99.90
2019-02-23T17:38:46.214Z,99.90
2019-02-23T17:41:14.854Z,99.90
2019-02-23T17:43:43.480Z,99.90
2019-02-23T17:46:12.177Z,99.90
2019-02-23T17:48:40.936Z,99.90
2019-02-23T17:51:09.472Z,99.90
2019-02-23T17:53:38.186Z,99.90
2019-02-23T17:56:12.182Z,99.90
2019-02-23T17:58:37.070Z,99.90
2019-02-23T18:01:05.753Z,99.90
2019-02-23T18:03:34.369Z,99.90
2019-02-23T18:06:02.920Z,99.90
2019-02-23T18:08:31.493Z,99.90
2019-02-23T18:11:00.605Z,99.90
2019-02-23T18:13:29.480Z,99.90
2019-02-23T18:15:58.179Z,99.90
2019-02-23T18:18:26.641Z,99.90
2019-02-23T18:20:55.275Z,99.90
2019-02-23T18:23:24.048Z,99.90
2019-02-23T18:25:52.608Z,99.90
2019-02-23T18:28:21.674Z,99.90
2019-02-23T18:30:50.179Z,99.90
2019-02-23T18:33:18.974Z,99.90
2019-02-23T18:35:47.837Z,99.90
2019-02-23T18:38:16.223Z,99.90
2019-02-23T18:40:44.803Z,99.90
2019-02-23T18:43:13.298Z,99.90
2019-02-23T18:45:47.467Z,99.90
2019-02-23T18:48:12.058Z,99.90
2019-02-23T18:50:40.527Z,99.90
2019-02-23T18:53:09.034Z,99.90
2019-02-23T18:55:41.027Z,99.90
2019-02-23T18:58:07.799Z,99.90
2019-02-23T19:00:36.222Z,99.90
2019-02-23T19:03:04.734Z,99.90
2019-02-23T19:05:38.702Z,99.90
2019-02-23T19:08:06.801Z,99.90
2019-02-23T19:10:35.378Z,99.90
2019-02-23T19:13:04.182Z,99.90
2019-02-23T19:15:33.353Z,99.90
2019-02-23T19:18:01.951Z,99.90
2019-02-23T19:20:30.504Z,99.90
2019-02-23T19:22:58.932Z,99.90
2019-02-23T19:25:27.660Z,99.90
2019-02-23T19:27:56.349Z,99.90
2019-02-23T19:30:24.854Z,99.90
2019-02-23T19:32:53.334Z,99.90
2019-02-23T19:35:22.078Z,99.90
2019-02-23T19:37:50.601Z,99.90
2019-02-23T19:40:19.071Z,99.90
2019-02-23T19:42:47.717Z,99.90
2019-02-23T19:45:16.208Z,99.90
2019-02-23T19:47:44.646Z,99.90
2019-02-23T19:50:25.296Z,99.90
2019-02-23T19:52:53.689Z,99.90
2019-02-23T19:55:22.117Z,99.90
2019-02-23T19:57:50.610Z,99.90
2019-02-23T20:00:19.024Z,99.90
2019-02-23T20:02:47.588Z,99.90
2019-02-23T20:05:15.999Z,99.90
2019-02-23T20:07:44.470Z,99.90
2019-02-23T20:10:13.698Z,99.90
2019-02-23T20:12:42.657Z,99.90
2019-02-23T20:17:59.548Z,99.90
2019-02-23T20:20:28.099Z,99.90
2019-02-23T20:22:57.061Z,99.90
2019-02-23T20:25:25.909Z,99.90
2019-02-23T20:27:54.434Z,99.90
2019-02-23T20:30:22.860Z,99.90
2019-02-23T20:32:51.266Z,99.90
2019-02-23T20:35:19.922Z,99.90
2019-02-23T20:37:49.384Z,99.90
2019-02-23T20:40:17.926Z,99.90
2019-02-23T20:42:46.459Z,99.90
2019-02-23T20:45:15.236Z,99.90
2019-02-23T20:47:43.726Z,99.90
2019-02-23T20:50:12.213Z,99.90
2019-02-23T20:52:40.917Z,99.90
2019-02-23T20:55:09.835Z,99.90
2019-02-23T20:57:38.478Z,99.90
2019-02-23T21:00:11.324Z,99.90
2019-02-23T21:02:39.997Z,99.90
2019-02-23T21:05:13.542Z,99.90
2019-02-23T21:07:42.097Z,99.90
2019-02-23T21:10:11.074Z,99.90
2019-02-23T21:12:39.954Z,99.90
2019-02-23T21:15:10.359Z,99.90
2019-02-23T21:17:39.222Z,99.90
2019-02-23T21:20:09.216Z,99.90
2019-02-23T21:22:38.041Z,99.90
2019-02-23T21:25:07.883Z,99.90
2019-02-23T21:27:36.449Z,99.90
2019-02-23T21:30:07.717Z,99.90
2019-02-23T21:32:36.231Z,99.90
2019-02-23T21:35:06.304Z,99.90
2019-02-23T21:37:34.869Z,99.90
2019-02-23T21:40:03.347Z,99.90
2019-02-23T21:42:31.865Z,99.90
2019-02-23T21:45:00.822Z,99.90
2019-02-23T21:47:29.485Z,99.90
2019-02-23T21:49:58.042Z,99.90
2019-02-23T21:52:26.705Z,99.90
2019-02-23T21:54:55.346Z,99.90
2019-02-23T21:57:24.078Z,99.90
2019-02-23T21:59:52.825Z,99.90
2019-02-23T22:02:21.631Z,99.90
2019-02-23T22:04:50.310Z,99.90
2019-02-23T22:07:18.849Z,99.90
2019-02-23T22:09:47.382Z,99.90
2019-02-23T22:12:15.965Z,99.90
2019-02-23T22:14:45.056Z,99.90
2019-02-23T22:17:13.458Z,99.90
2019-02-23T22:19:41.919Z,99.90
2019-02-23T22:22:10.489Z,99.90
2019-02-23T22:24:39.011Z,99.90
2019-02-23T22:27:07.670Z,99.90
2019-02-23T22:29:39.122Z,99.90
2019-02-23T22:32:07.555Z,99.90
2019-02-23T22:34:36.313Z,99.90
2019-02-23T22:37:05.128Z,99.90
2019-02-23T22:39:33.633Z,99.90
2019-02-23T22:42:02.382Z,99.90
2019-02-23T22:47:28.549Z,99.90
2019-02-23T22:50:02.109Z,99.90
2019-02-23T22:52:34.598Z,99.90
2019-02-23T22:57:58.561Z,99.90
2019-02-23T23:00:29.130Z,99.90
2019-02-23T23:02:57.542Z,99.90
2019-02-23T23:05:26.010Z,99.90
2019-02-23T23:07:55.386Z,99.90
2019-02-23T23:10:24.112Z,99.90
2019-02-23T23:12:52.506Z,99.90
2019-02-23T23:15:20.910Z,99.90
2019-02-23T23:17:49.319Z,99.90
2019-02-23T23:20:18.091Z,99.90
2019-02-23T23:22:46.508Z,99.90
2019-02-23T23:25:15.143Z,99.90
2019-02-23T23:27:49.079Z,99.90
2019-02-23T23:30:13.687Z,99.90
2019-02-23T23:32:42.092Z,99.90
2019-02-23T23:35:10.562Z,99.90
2019-02-23T23:37:39.202Z,99.90
2019-02-23T23:40:07.683Z,99.90
2019-02-23T23:42:36.337Z,99.90
2019-02-23T23:45:06.132Z,99.90
2019-02-23T23:47:34.544Z,99.90
2019-02-23T23:50:03.020Z,99.90
2019-02-23T23:52:31.510Z,99.90
2019-02-23T23:54:59.910Z,99.90
2019-02-23T23:57:28.385Z,99.90
2019-02-23T23:59:56.798Z,99.90
